sensor_id;sensor_type;location;lat;lon;timestamp;pressure;altitude;pressure_sealevel;temperature;humidity
73842;BME280;62184;52.006;5.924;2022-07-10T10:50:49;101849.97;;;20.28;56.87
73842;BME280;62184;52.006;5.924;2022-07-10T10:53:18;101848.22;;;20.48;57.88
73842;BME280;62184;52.006;5.924;2022-07-10T10:56:21;101846.19;;;20.71;56.94
73842;BME280;62184;52.006;5.924;2022-07-10T10:58:49;101838.09;;;20.90;58.27
73842;BME280;62184;52.006;5.924;2022-07-10T11:01:27;101839.09;;;21.06;57.28
73842;BME280;62184;52.006;5.924;2022-07-10T11:04:12;101841.25;;;21.18;57.05
73842;BME280;62184;52.006;5.924;2022-07-10T11:06:43;101833.78;;;21.24;57.72
73842;BME280;62184;52.006;5.924;2022-07-10T11:09:24;101823.94;;;21.21;56.84
73842;BME280;62184;52.006;5.924;2022-07-10T11:12:02;101828.97;;;21.29;56.49
73842;BME280;62184;52.006;5.924;2022-07-10T11:14:30;101826.38;;;21.44;57.40
73842;BME280;62184;52.006;5.924;2022-07-10T11:16:58;101822.19;;;21.73;56.77
73842;BME280;62184;52.006;5.924;2022-07-10T11:19:26;101819.75;;;22.03;56.19
73842;BME280;62184;52.006;5.924;2022-07-10T11:22:18;101813.03;;;22.43;55.00
73842;BME280;62184;52.006;5.924;2022-07-10T11:28:07;101828.84;;;22.52;54.37
73842;BME280;62184;52.006;5.924;2022-07-10T11:30:44;101823.78;;;22.62;53.92
73842;BME280;62184;52.006;5.924;2022-07-10T11:33:12;101817.31;;;22.64;53.68
73842;BME280;62184;52.006;5.924;2022-07-10T11:35:40;101821.78;;;22.65;54.20
73842;BME280;62184;52.006;5.924;2022-07-10T11:38:09;101821.69;;;22.67;53.91
73842;BME280;62184;52.006;5.924;2022-07-10T11:40:35;101813.16;;;22.75;53.54
73842;BME280;62184;52.006;5.924;2022-07-10T11:43:02;101806.19;;;22.85;54.13
73842;BME280;62184;52.006;5.924;2022-07-10T11:45:31;101806.31;;;22.83;52.61
73842;BME280;62184;52.006;5.924;2022-07-10T11:47:59;101808.00;;;22.68;53.41
73842;BME280;62184;52.006;5.924;2022-07-10T11:50:26;101816.16;;;22.68;53.26
73842;BME280;62184;52.006;5.924;2022-07-10T11:52:53;101811.72;;;22.67;53.30
73842;BME280;62184;52.006;5.924;2022-07-10T11:55:23;101809.50;;;22.58;52.99
73842;BME280;62184;52.006;5.924;2022-07-10T11:57:52;101816.84;;;22.56;53.45
73842;BME280;62184;52.006;5.924;2022-07-10T12:00:23;101815.38;;;22.66;53.23
73842;BME280;62184;52.006;5.924;2022-07-10T12:02:50;101807.00;;;22.87;53.35
73842;BME280;62184;52.006;5.924;2022-07-10T12:05:32;101802.78;;;22.97;51.79
73842;BME280;62184;52.006;5.924;2022-07-10T12:08:00;101805.97;;;22.89;51.83
73842;BME280;62184;52.006;5.924;2022-07-10T12:10:30;101796.19;;;22.85;52.12
73842;BME280;62184;52.006;5.924;2022-07-10T12:13:05;101809.81;;;22.85;51.61
73842;BME280;62184;52.006;5.924;2022-07-10T12:15:33;101797.44;;;22.80;51.51
73842;BME280;62184;52.006;5.924;2022-07-10T12:18:00;101808.19;;;22.65;51.32
73842;BME280;62184;52.006;5.924;2022-07-10T12:20:27;101801.66;;;22.52;51.88
73842;BME280;62184;52.006;5.924;2022-07-10T12:22:53;101806.91;;;22.40;52.04
73842;BME280;62184;52.006;5.924;2022-07-10T12:25:20;101817.38;;;22.30;52.59
73842;BME280;62184;52.006;5.924;2022-07-10T12:27:55;101813.63;;;22.32;52.21
73842;BME280;62184;52.006;5.924;2022-07-10T12:30:21;101828.81;;;22.37;52.40
73842;BME280;62184;52.006;5.924;2022-07-10T12:32:48;101832.72;;;22.48;51.88
73842;BME280;62184;52.006;5.924;2022-07-10T12:35:14;101835.72;;;22.59;51.62
73842;BME280;62184;52.006;5.924;2022-07-10T12:37:47;101821.78;;;22.65;51.63
73842;BME280;62184;52.006;5.924;2022-07-10T12:40:31;101814.13;;;22.89;50.08
73842;BME280;62184;52.006;5.924;2022-07-10T12:43:05;101808.75;;;23.03;50.31
73842;BME280;62184;52.006;5.924;2022-07-10T12:45:31;101810.88;;;23.14;50.53
73842;BME280;62184;52.006;5.924;2022-07-10T12:47:57;101822.03;;;23.25;50.64
73842;BME280;62184;52.006;5.924;2022-07-10T12:50:24;101812.91;;;23.26;49.55
73842;BME280;62184;52.006;5.924;2022-07-10T12:53:08;101812.63;;;23.31;49.54
73842;BME280;62184;52.006;5.924;2022-07-10T12:55:36;101805.75;;;23.39;49.69
73842;BME280;62184;52.006;5.924;2022-07-10T12:58:09;101806.25;;;23.46;48.83
73842;BME280;62184;52.006;5.924;2022-07-10T13:00:43;101811.13;;;23.57;49.07
73842;BME280;62184;52.006;5.924;2022-07-10T13:03:17;101813.72;;;23.74;47.65
73842;BME280;62184;52.006;5.924;2022-07-10T13:05:45;101817.84;;;23.65;47.97
73842;BME280;62184;52.006;5.924;2022-07-10T13:08:12;101818.03;;;23.46;47.89
73842;BME280;62184;52.006;5.924;2022-07-10T13:10:41;101803.03;;;23.39;48.56
73842;BME280;62184;52.006;5.924;2022-07-10T13:13:11;101801.56;;;23.34;48.29
73842;BME280;62184;52.006;5.924;2022-07-10T13:15:38;101796.00;;;23.35;49.11
73842;BME280;62184;52.006;5.924;2022-07-10T13:18:06;101796.91;;;23.52;49.08
73842;BME280;62184;52.006;5.924;2022-07-10T13:20:33;101802.41;;;23.66;48.54
73842;BME280;62184;52.006;5.924;2022-07-10T13:23:00;101806.41;;;23.74;48.67
73842;BME280;62184;52.006;5.924;2022-07-10T13:25:26;101805.31;;;23.93;48.33
73842;BME280;62184;52.006;5.924;2022-07-10T13:27:53;101807.00;;;24.09;48.36
73842;BME280;62184;52.006;5.924;2022-07-10T13:30:22;101798.47;;;24.30;46.83
73842;BME280;62184;52.006;5.924;2022-07-10T13:32:49;101795.47;;;24.34;46.60
73842;BME280;62184;52.006;5.924;2022-07-10T13:35:15;101797.41;;;24.32;45.77
73842;BME280;62184;52.006;5.924;2022-07-10T13:37:42;101789.50;;;24.28;46.68
73842;BME280;62184;52.006;5.924;2022-07-10T13:40:09;101798.84;;;24.38;46.64
73842;BME280;62184;52.006;5.924;2022-07-10T13:42:36;101796.16;;;24.52;46.61
73842;BME280;62184;52.006;5.924;2022-07-10T13:45:03;101798.56;;;24.56;45.82
73842;BME280;62184;52.006;5.924;2022-07-10T13:47:32;101785.25;;;24.52;45.93
73842;BME280;62184;52.006;5.924;2022-07-10T13:49:59;101781.81;;;24.63;45.27
73842;BME280;62184;52.006;5.924;2022-07-10T13:52:25;101781.72;;;24.64;44.32
73842;BME280;62184;52.006;5.924;2022-07-10T13:54:51;101788.34;;;24.60;44.44
73842;BME280;62184;52.006;5.924;2022-07-10T13:57:18;101778.00;;;24.65;44.33
73842;BME280;62184;52.006;5.924;2022-07-10T13:59:44;101782.50;;;24.66;44.23
73842;BME280;62184;52.006;5.924;2022-07-10T14:02:11;101781.22;;;24.72;44.44
73842;BME280;62184;52.006;5.924;2022-07-10T14:04:40;101776.72;;;24.85;44.27
73842;BME280;62184;52.006;5.924;2022-07-10T14:07:06;101783.63;;;24.90;43.47
73842;BME280;62184;52.006;5.924;2022-07-10T14:09:32;101777.22;;;24.91;42.92
73842;BME280;62184;52.006;5.924;2022-07-10T14:11:59;101769.19;;;24.88;43.60
73842;BME280;62184;52.006;5.924;2022-07-10T14:14:25;101772.00;;;24.87;43.22
73842;BME280;62184;52.006;5.924;2022-07-10T14:16:52;101765.13;;;24.81;43.29
73842;BME280;62184;52.006;5.924;2022-07-10T14:19:18;101762.09;;;24.72;43.54
73842;BME280;62184;52.006;5.924;2022-07-10T14:21:47;101764.06;;;24.70;43.71
73842;BME280;62184;52.006;5.924;2022-07-10T14:24:14;101757.13;;;24.78;43.47
73842;BME280;62184;52.006;5.924;2022-07-10T14:26:40;101752.06;;;24.72;42.94
73842;BME280;62184;52.006;5.924;2022-07-10T14:29:06;101761.22;;;24.71;43.67
73842;BME280;62184;52.006;5.924;2022-07-10T14:31:33;101769.50;;;24.70;43.32
73842;BME280;62184;52.006;5.924;2022-07-10T14:34:00;101754.81;;;24.72;43.43
73842;BME280;62184;52.006;5.924;2022-07-10T14:36:26;101764.34;;;24.93;43.29
73842;BME280;62184;52.006;5.924;2022-07-10T14:38:56;101755.53;;;25.03;43.19
73842;BME280;62184;52.006;5.924;2022-07-10T14:41:23;101764.81;;;25.00;43.01
73842;BME280;62184;52.006;5.924;2022-07-10T14:43:50;101756.63;;;25.00;42.94
73842;BME280;62184;52.006;5.924;2022-07-10T14:46:17;101746.88;;;24.96;43.10
73842;BME280;62184;52.006;5.924;2022-07-10T14:48:43;101741.22;;;24.99;42.77
73842;BME280;62184;52.006;5.924;2022-07-10T14:51:10;101741.75;;;24.91;42.92
73842;BME280;62184;52.006;5.924;2022-07-10T14:53:36;101753.22;;;24.82;43.25
73842;BME280;62184;52.006;5.924;2022-07-10T14:56:06;101741.34;;;24.69;42.95
73842;BME280;62184;52.006;5.924;2022-07-10T14:58:33;101736.53;;;24.60;43.16
73842;BME280;62184;52.006;5.924;2022-07-10T15:01:00;101738.25;;;24.61;43.59
73842;BME280;62184;52.006;5.924;2022-07-10T15:03:27;101739.03;;;24.63;43.30
73842;BME280;62184;52.006;5.924;2022-07-10T15:05:53;101744.72;;;24.60;43.17
73842;BME280;62184;52.006;5.924;2022-07-10T15:08:20;101743.31;;;24.53;43.48
73842;BME280;62184;52.006;5.924;2022-07-10T15:10:46;101725.84;;;24.43;43.10
73842;BME280;62184;52.006;5.924;2022-07-10T15:13:15;101730.09;;;24.47;43.67
73842;BME280;62184;52.006;5.924;2022-07-10T15:15:42;101734.41;;;24.51;43.30
73842;BME280;62184;52.006;5.924;2022-07-10T15:18:08;101734.16;;;24.54;43.92
73842;BME280;62184;52.006;5.924;2022-07-10T15:20:35;101729.09;;;24.62;43.73
73842;BME280;62184;52.006;5.924;2022-07-10T15:23:02;101719.34;;;24.72;43.67
73842;BME280;62184;52.006;5.924;2022-07-10T15:25:29;101734.72;;;24.73;43.46
73842;BME280;62184;52.006;5.924;2022-07-10T15:27:55;101724.19;;;24.81;43.44
73842;BME280;62184;52.006;5.924;2022-07-10T15:30:24;101713.81;;;24.86;42.94
73842;BME280;62184;52.006;5.924;2022-07-10T15:32:51;101718.38;;;24.73;42.65
73842;BME280;62184;52.006;5.924;2022-07-10T15:35:17;101718.97;;;24.64;43.33
73842;BME280;62184;52.006;5.924;2022-07-10T15:37:43;101710.50;;;24.54;43.34
73842;BME280;62184;52.006;5.924;2022-07-10T15:40:10;101714.00;;;24.56;44.18
73842;BME280;62184;52.006;5.924;2022-07-10T15:42:37;101717.31;;;24.62;43.65
73842;BME280;62184;52.006;5.924;2022-07-10T15:45:04;101720.16;;;24.60;43.85
73842;BME280;62184;52.006;5.924;2022-07-10T15:47:34;101716.44;;;24.61;43.86
73842;BME280;62184;52.006;5.924;2022-07-10T15:50:00;101710.97;;;24.61;43.65
73842;BME280;62184;52.006;5.924;2022-07-10T15:52:27;101708.75;;;24.53;43.77
73842;BME280;62184;52.006;5.924;2022-07-10T15:54:53;101705.56;;;24.47;44.46
73842;BME280;62184;52.006;5.924;2022-07-10T15:57:19;101700.41;;;24.42;43.93
73842;BME280;62184;52.006;5.924;2022-07-10T15:59:46;101701.28;;;24.43;44.46
73842;BME280;62184;52.006;5.924;2022-07-10T16:02:12;101703.22;;;24.41;44.72
73842;BME280;62184;52.006;5.924;2022-07-10T16:04:41;101694.69;;;24.33;44.63
73842;BME280;62184;52.006;5.924;2022-07-10T16:07:07;101694.06;;;24.28;44.70
73842;BME280;62184;52.006;5.924;2022-07-10T16:09:34;101691.47;;;24.26;44.92
73842;BME280;62184;52.006;5.924;2022-07-10T16:12:00;101690.94;;;24.19;44.92
73842;BME280;62184;52.006;5.924;2022-07-10T16:14:27;101699.75;;;24.25;45.70
73842;BME280;62184;52.006;5.924;2022-07-10T16:16:53;101694.59;;;24.34;45.58
73842;BME280;62184;52.006;5.924;2022-07-10T16:19:19;101697.00;;;24.39;45.49
73842;BME280;62184;52.006;5.924;2022-07-10T16:21:48;101692.41;;;24.39;44.98
73842;BME280;62184;52.006;5.924;2022-07-10T16:24:15;101690.97;;;24.34;45.17
73842;BME280;62184;52.006;5.924;2022-07-10T16:26:41;101683.75;;;24.18;45.45
73842;BME280;62184;52.006;5.924;2022-07-10T16:29:07;101687.63;;;24.14;45.63
73842;BME280;62184;52.006;5.924;2022-07-10T16:31:34;101681.63;;;24.09;46.34
73842;BME280;62184;52.006;5.924;2022-07-10T16:34:00;101679.97;;;24.07;45.99
73842;BME280;62184;52.006;5.924;2022-07-10T16:36:27;101691.75;;;23.93;46.30
73842;BME280;62184;52.006;5.924;2022-07-10T16:38:56;101693.59;;;23.93;46.02
73842;BME280;62184;52.006;5.924;2022-07-10T16:41:23;101686.06;;;23.96;45.90
73842;BME280;62184;52.006;5.924;2022-07-10T16:43:49;101681.97;;;24.03;46.35
73842;BME280;62184;52.006;5.924;2022-07-10T16:46:15;101675.47;;;24.06;46.48
73842;BME280;62184;52.006;5.924;2022-07-10T16:48:42;101673.06;;;24.01;46.08
73842;BME280;62184;52.006;5.924;2022-07-10T16:51:09;101670.59;;;23.97;46.31
73842;BME280;62184;52.006;5.924;2022-07-10T16:53:35;101678.31;;;23.90;46.72
73842;BME280;62184;52.006;5.924;2022-07-10T16:56:05;101677.72;;;23.85;46.78
73842;BME280;62184;52.006;5.924;2022-07-10T16:58:33;101671.50;;;23.83;46.54
73842;BME280;62184;52.006;5.924;2022-07-10T17:00:59;101670.88;;;23.78;46.92
73842;BME280;62184;52.006;5.924;2022-07-10T17:03:25;101657.09;;;23.81;47.10
73842;BME280;62184;52.006;5.924;2022-07-10T17:05:52;101655.94;;;23.85;46.88
73842;BME280;62184;52.006;5.924;2022-07-10T17:08:18;101672.56;;;23.80;46.72
73842;BME280;62184;52.006;5.924;2022-07-10T17:10:45;101669.25;;;23.75;47.18
73842;BME280;62184;52.006;5.924;2022-07-10T17:13:14;101673.22;;;23.70;47.09
73842;BME280;62184;52.006;5.924;2022-07-10T17:15:40;101670.63;;;23.68;47.37
73842;BME280;62184;52.006;5.924;2022-07-10T17:18:06;101673.13;;;23.71;47.43
73842;BME280;62184;52.006;5.924;2022-07-10T17:20:33;101674.00;;;23.72;47.36
73842;BME280;62184;52.006;5.924;2022-07-10T17:22:59;101665.16;;;23.68;47.25
73842;BME280;62184;52.006;5.924;2022-07-10T17:25:26;101665.59;;;23.61;46.48
73842;BME280;62184;52.006;5.924;2022-07-10T17:27:52;101662.31;;;23.56;47.03
73842;BME280;62184;52.006;5.924;2022-07-10T17:30:21;101658.22;;;23.49;46.70
73842;BME280;62184;52.006;5.924;2022-07-10T17:32:48;101656.59;;;23.44;46.66
73842;BME280;62184;52.006;5.924;2022-07-10T17:35:14;101655.41;;;23.50;47.45
73842;BME280;62184;52.006;5.924;2022-07-10T17:37:41;101646.94;;;23.55;47.31
73842;BME280;62184;52.006;5.924;2022-07-10T17:40:09;101652.38;;;23.55;47.11
73842;BME280;62184;52.006;5.924;2022-07-10T17:42:36;101652.03;;;23.45;47.02
73842;BME280;62184;52.006;5.924;2022-07-10T17:45:02;101653.31;;;23.39;46.71
73842;BME280;62184;52.006;5.924;2022-07-10T17:47:32;101653.84;;;23.30;46.84
73842;BME280;62184;52.006;5.924;2022-07-10T17:49:58;101647.91;;;23.24;47.46
73842;BME280;62184;52.006;5.924;2022-07-10T17:52:25;101648.72;;;23.26;46.94
73842;BME280;62184;52.006;5.924;2022-07-10T17:54:51;101643.34;;;23.24;47.04
73842;BME280;62184;52.006;5.924;2022-07-10T17:57:18;101642.72;;;23.19;47.49
73842;BME280;62184;52.006;5.924;2022-07-10T17:59:44;101647.09;;;23.07;47.42
73842;BME280;62184;52.006;5.924;2022-07-10T18:02:10;101641.69;;;22.92;48.04
73842;BME280;62184;52.006;5.924;2022-07-10T18:04:39;101645.72;;;22.85;47.96
73842;BME280;62184;52.006;5.924;2022-07-10T18:07:06;101643.38;;;22.79;48.40
73842;BME280;62184;52.006;5.924;2022-07-10T18:09:32;101639.22;;;22.71;48.35
73842;BME280;62184;52.006;5.924;2022-07-10T18:11:58;101637.38;;;22.72;48.76
73842;BME280;62184;52.006;5.924;2022-07-10T18:14:25;101634.75;;;22.70;48.70
73842;BME280;62184;52.006;5.924;2022-07-10T18:16:51;101647.13;;;22.60;47.95
73842;BME280;62184;52.006;5.924;2022-07-10T18:19:18;101643.88;;;22.54;48.58
73842;BME280;62184;52.006;5.924;2022-07-10T18:21:47;101636.34;;;22.43;48.76
73842;BME280;62184;52.006;5.924;2022-07-10T18:24:13;101634.06;;;22.36;48.69
73842;BME280;62184;52.006;5.924;2022-07-10T18:26:39;101630.91;;;22.27;49.05
73842;BME280;62184;52.006;5.924;2022-07-10T18:29:06;101628.72;;;22.18;49.34
73842;BME280;62184;52.006;5.924;2022-07-10T18:31:32;101627.22;;;22.13;49.57
73842;BME280;62184;52.006;5.924;2022-07-10T18:33:59;101628.47;;;22.07;49.04
73842;BME280;62184;52.006;5.924;2022-07-10T18:36:25;101636.94;;;22.01;49.61
73842;BME280;62184;52.006;5.924;2022-07-10T18:38:54;101634.31;;;22.00;49.74
73842;BME280;62184;52.006;5.924;2022-07-10T18:41:21;101636.28;;;21.96;49.67
73842;BME280;62184;52.006;5.924;2022-07-10T18:43:47;101633.91;;;21.90;49.99
73842;BME280;62184;52.006;5.924;2022-07-10T18:46:13;101638.47;;;21.89;50.15
73842;BME280;62184;52.006;5.924;2022-07-10T18:48:40;101632.16;;;21.89;50.23
73842;BME280;62184;52.006;5.924;2022-07-10T18:51:06;101636.88;;;21.85;49.98
73842;BME280;62184;52.006;5.924;2022-07-10T18:53:32;101635.66;;;21.75;50.31
73842;BME280;62184;52.006;5.924;2022-07-10T18:56:02;101627.75;;;21.71;50.58
73842;BME280;62184;52.006;5.924;2022-07-10T18:58:28;101625.38;;;21.65;50.88
73842;BME280;62184;52.006;5.924;2022-07-10T19:00:55;101634.72;;;21.59;50.83
73842;BME280;62184;52.006;5.924;2022-07-10T19:03:21;101634.06;;;21.54;51.06
73842;BME280;62184;52.006;5.924;2022-07-10T19:05:47;101632.50;;;21.50;51.50
73842;BME280;62184;52.006;5.924;2022-07-10T19:08:14;101630.81;;;21.47;51.77
73842;BME280;62184;52.006;5.924;2022-07-10T19:10:40;101630.91;;;21.46;51.82
73842;BME280;62184;52.006;5.924;2022-07-10T19:13:09;101635.53;;;21.44;51.99
73842;BME280;62184;52.006;5.924;2022-07-10T19:15:35;101637.53;;;21.40;52.19
73842;BME280;62184;52.006;5.924;2022-07-10T19:18:02;101636.88;;;21.35;51.78
73842;BME280;62184;52.006;5.924;2022-07-10T19:20:28;101623.59;;;21.31;52.16
73842;BME280;62184;52.006;5.924;2022-07-10T19:22:55;101640.09;;;21.26;51.98
73842;BME280;62184;52.006;5.924;2022-07-10T19:25:21;101633.97;;;21.23;52.52
73842;BME280;62184;52.006;5.924;2022-07-10T19:27:48;101631.53;;;21.16;52.82
73842;BME280;62184;52.006;5.924;2022-07-10T19:30:17;101639.91;;;21.12;52.78
73842;BME280;62184;52.006;5.924;2022-07-10T19:32:43;101638.53;;;21.03;52.53
73842;BME280;62184;52.006;5.924;2022-07-10T19:35:10;101644.50;;;20.93;52.82
73842;BME280;62184;52.006;5.924;2022-07-10T19:37:38;101641.63;;;20.78;53.10
73842;BME280;62184;52.006;5.924;2022-07-10T19:40:06;101643.13;;;20.67;53.26
73842;BME280;62184;52.006;5.924;2022-07-10T19:42:33;101651.72;;;20.58;53.66
73842;BME280;62184;52.006;5.924;2022-07-10T19:44:59;101652.00;;;20.52;53.61
73842;BME280;62184;52.006;5.924;2022-07-10T19:47:28;101648.72;;;20.45;53.53
73842;BME280;62184;52.006;5.924;2022-07-10T19:49:54;101651.88;;;20.36;54.24
73842;BME280;62184;52.006;5.924;2022-07-10T19:52:21;101645.03;;;20.27;54.29
73842;BME280;62184;52.006;5.924;2022-07-10T19:54:48;101648.19;;;20.18;54.46
73842;BME280;62184;52.006;5.924;2022-07-10T19:57:14;101655.78;;;20.10;54.67
73842;BME280;62184;52.006;5.924;2022-07-10T19:59:41;101658.94;;;20.01;54.68
73842;BME280;62184;52.006;5.924;2022-07-10T20:02:07;101659.22;;;19.95;55.07
73842;BME280;62184;52.006;5.924;2022-07-10T20:04:36;101649.56;;;19.89;55.44
73842;BME280;62184;52.006;5.924;2022-07-10T20:07:04;101657.09;;;19.83;55.18
73842;BME280;62184;52.006;5.924;2022-07-10T20:09:30;101659.34;;;19.73;55.65
73842;BME280;62184;52.006;5.924;2022-07-10T20:11:56;101660.66;;;19.64;55.95
73842;BME280;62184;52.006;5.924;2022-07-10T20:14:23;101665.47;;;19.58;56.12
73842;BME280;62184;52.006;5.924;2022-07-10T20:16:49;101670.34;;;19.50;56.30
73842;BME280;62184;52.006;5.924;2022-07-10T20:19:15;101670.63;;;19.42;56.90
73842;BME280;62184;52.006;5.924;2022-07-10T20:21:45;101672.66;;;19.37;56.73
73842;BME280;62184;52.006;5.924;2022-07-10T20:24:12;101679.22;;;19.31;56.79
73842;BME280;62184;52.006;5.924;2022-07-10T20:26:38;101676.69;;;19.27;57.40
73842;BME280;62184;52.006;5.924;2022-07-10T20:29:04;101674.06;;;19.25;57.38
73842;BME280;62184;52.006;5.924;2022-07-10T20:31:31;101670.56;;;19.23;57.85
73842;BME280;62184;52.006;5.924;2022-07-10T20:33:57;101679.47;;;19.25;57.55
73842;BME280;62184;52.006;5.924;2022-07-10T20:36:23;101679.47;;;19.25;57.86
73842;BME280;62184;52.006;5.924;2022-07-10T20:38:52;101682.19;;;19.25;57.67
73842;BME280;62184;52.006;5.924;2022-07-10T20:41:19;101669.53;;;19.26;58.09
73842;BME280;62184;52.006;5.924;2022-07-10T20:43:45;101669.53;;;19.26;58.06
73842;BME280;62184;52.006;5.924;2022-07-10T20:46:12;101673.28;;;19.23;58.37
73842;BME280;62184;52.006;5.924;2022-07-10T20:48:38;101667.09;;;19.20;58.23
73842;BME280;62184;52.006;5.924;2022-07-10T20:51:04;101667.16;;;19.18;58.41
73842;BME280;62184;52.006;5.924;2022-07-10T20:53:31;101673.59;;;19.16;58.60
73842;BME280;62184;52.006;5.924;2022-07-10T20:56:00;101667.50;;;19.11;58.82
73842;BME280;62184;52.006;5.924;2022-07-10T20:58:26;101675.00;;;19.04;59.13
73842;BME280;62184;52.006;5.924;2022-07-10T21:02:40;101683.69;;;19.90;59.75
73842;BME280;62184;52.006;5.924;2022-07-10T21:05:07;101678.41;;;19.87;59.66
73842;BME280;62184;52.006;5.924;2022-07-10T21:09:28;101679.56;;;17.82;60.16
73842;BME280;62184;52.006;5.924;2022-07-10T21:11:55;101675.09;;;17.81;60.20
73842;BME280;62184;52.006;5.924;2022-07-10T21:14:21;101683.31;;;17.78;60.24
73842;BME280;62184;52.006;5.924;2022-07-10T21:16:47;101678.16;;;17.72;60.67
73842;BME280;62184;52.006;5.924;2022-07-10T21:19:14;101680.94;;;17.70;60.87
73842;BME280;62184;52.006;5.924;2022-07-10T21:21:40;101675.63;;;17.67;61.31
73842;BME280;62184;52.006;5.924;2022-07-10T21:24:07;101677.56;;;17.65;61.39
73842;BME280;62184;52.006;5.924;2022-07-10T21:26:36;101678.59;;;17.61;61.58
73842;BME280;62184;52.006;5.924;2022-07-10T21:29:02;101677.78;;;17.59;61.51
73842;BME280;62184;52.006;5.924;2022-07-10T21:31:29;101682.38;;;17.57;62.05
73842;BME280;62184;52.006;5.924;2022-07-10T21:33:55;101674.34;;;17.54;61.82
73842;BME280;62184;52.006;5.924;2022-07-10T21:36:22;101679.81;;;17.52;61.53
73842;BME280;62184;52.006;5.924;2022-07-10T21:38:48;101678.94;;;17.52;62.05
73842;BME280;62184;52.006;5.924;2022-07-10T21:41:15;101688.13;;;17.48;62.02
73842;BME280;62184;52.006;5.924;2022-07-10T21:43:44;101684.66;;;17.44;62.34
73842;BME280;62184;52.006;5.924;2022-07-10T21:46:10;101681.06;;;17.44;62.64
73842;BME280;62184;52.006;5.924;2022-07-10T21:48:37;101679.25;;;17.44;62.46
73842;BME280;62184;52.006;5.924;2022-07-10T21:51:03;101687.41;;;17.43;62.90
73842;BME280;62184;52.006;5.924;2022-07-10T21:53:29;101680.25;;;17.42;63.09
73842;BME280;62184;52.006;5.924;2022-07-10T21:55:56;101683.03;;;17.40;62.80
73842;BME280;62184;52.006;5.924;2022-07-10T21:58:22;101690.16;;;17.41;62.96
73842;BME280;62184;52.006;5.924;2022-07-10T22:00:51;101690.16;;;17.41;63.29
73842;BME280;62184;52.006;5.924;2022-07-10T22:03:18;101685.72;;;17.40;63.62
73842;BME280;62184;52.006;5.924;2022-07-10T22:05:44;101683.19;;;17.36;63.46
73842;BME280;62184;52.006;5.924;2022-07-10T22:08:11;101684.13;;;17.35;63.60
73842;BME280;62184;52.006;5.924;2022-07-10T22:10:37;101685.00;;;17.35;63.96
73842;BME280;62184;52.006;5.924;2022-07-10T22:13:03;101689.53;;;17.35;63.52
73842;BME280;62184;52.006;5.924;2022-07-10T22:15:30;101692.22;;;17.35;63.64
73842;BME280;62184;52.006;5.924;2022-07-10T22:17:59;101683.25;;;17.34;63.59
73842;BME280;62184;52.006;5.924;2022-07-10T22:20:26;101685.94;;;17.34;64.09
73842;BME280;62184;52.006;5.924;2022-07-10T22:22:52;101684.13;;;17.35;63.50
73842;BME280;62184;52.006;5.924;2022-07-10T22:25:18;101686.78;;;17.36;63.66
73842;BME280;62184;52.006;5.924;2022-07-10T22:27:46;101688.66;;;17.34;64.40
73842;BME280;62184;52.006;5.924;2022-07-10T22:30:14;101681.63;;;17.30;64.28
73842;BME280;62184;52.006;5.924;2022-07-10T22:32:41;101688.84;;;17.30;64.25
73842;BME280;62184;52.006;5.924;2022-07-10T22:35:10;101686.13;;;17.30;64.50
73842;BME280;62184;52.006;5.924;2022-07-10T22:37:36;101672.53;;;17.33;64.39
73842;BME280;62184;52.006;5.924;2022-07-10T22:40:04;101679.66;;;17.34;64.41
73842;BME280;62184;52.006;5.924;2022-07-10T22:42:32;101679.66;;;17.34;64.27
73842;BME280;62184;52.006;5.924;2022-07-10T22:44:58;101685.06;;;17.34;64.34
73842;BME280;62184;52.006;5.924;2022-07-10T22:47:24;101684.28;;;17.32;64.76
73842;BME280;62184;52.006;5.924;2022-07-10T22:49:51;101686.13;;;17.30;64.82
73842;BME280;62184;52.006;5.924;2022-07-10T22:52:20;101686.25;;;17.27;64.95
73842;BME280;62184;52.006;5.924;2022-07-10T22:54:46;101682.72;;;17.25;64.66
73842;BME280;62184;52.006;5.924;2022-07-10T22:57:13;101680.84;;;17.27;64.63
73842;BME280;62184;52.006;5.924;2022-07-10T22:59:39;101678.03;;;17.30;65.18
73842;BME280;62184;52.006;5.924;2022-07-10T23:02:06;101674.41;;;17.31;64.98
73842;BME280;62184;52.006;5.924;2022-07-10T23:04:32;101677.09;;;17.31;64.69
73842;BME280;62184;52.006;5.924;2022-07-10T23:06:58;101681.56;;;17.32;65.27
73842;BME280;62184;52.006;5.924;2022-07-10T23:09:27;101677.84;;;17.34;65.18
73842;BME280;62184;52.006;5.924;2022-07-10T23:11:54;101669.75;;;17.34;65.34
73842;BME280;62184;52.006;5.924;2022-07-10T23:14:20;101674.22;;;17.35;65.25
73842;BME280;62184;52.006;5.924;2022-07-10T23:16:46;101670.56;;;17.36;65.21
73842;BME280;62184;52.006;5.924;2022-07-10T23:19:13;101667.03;;;17.34;65.51
73842;BME280;62184;52.006;5.924;2022-07-10T23:21:39;101668.06;;;17.32;65.33
73842;BME280;62184;52.006;5.924;2022-07-10T23:24:06;101660.03;;;17.30;65.54
73842;BME280;62184;52.006;5.924;2022-07-10T23:26:35;101658.25;;;17.29;65.76
73842;BME280;62184;52.006;5.924;2022-07-10T23:29:01;101652.09;;;17.26;65.76
73842;BME280;62184;52.006;5.924;2022-07-10T23:31:28;101661.13;;;17.25;65.76
73842;BME280;62184;52.006;5.924;2022-07-10T23:33:54;101644.81;;;17.28;65.38
73842;BME280;62184;52.006;5.924;2022-07-10T23:36:20;101648.34;;;17.30;65.45
73842;BME280;62184;52.006;5.924;2022-07-10T23:38:47;101645.59;;;17.31;65.17
73842;BME280;62184;52.006;5.924;2022-07-10T23:41:13;101650.84;;;17.34;65.06
73842;BME280;62184;52.006;5.924;2022-07-10T23:43:42;101646.47;;;17.32;65.75
73842;BME280;62184;52.006;5.924;2022-07-10T23:46:09;101644.81;;;17.28;65.65
73842;BME280;62184;52.006;5.924;2022-07-10T23:48:35;101636.81;;;17.25;65.54